Time;durP1;ratioP1;P1;durP2;ratioP2;P2;SDS_P1;SDS_P2;PMS_P1;PMS_P2;Temp;Humidity;BMP_temperature;BMP_pressure;BME280_temperature;BME280_humidity;BME280_pressure;Samples;Min_cycle;Max_cycle;Signal;HPM_P1;HPM_P2
2022/01/31 00:01:06;;;;;;;8.45;4.20;;;30.00;95.90;;;;;;5093044;28;20372;-87
2022/01/31 00:03:34;;;;;;;9.15;4.95;;;30.60;94.10;;;;;;5092411;28;20401;-87
2022/01/31 00:06:02;;;;;;;9.57;4.80;;;31.10;92.10;;;;;;5092739;28;20434;-87
2022/01/31 00:08:29;;;;;;;8.18;5.07;;;31.30;91.20;;;;;;5092553;28;20443;-87
2022/01/31 00:10:57;;;;;;;6.97;4.72;;;31.60;89.80;;;;;;5092404;28;20447;-88
2022/01/31 00:13:45;;;;;;;7.13;5.30;;;31.60;86.40;;;;;;5092927;28;20369;-86
2022/01/31 00:16:21;;;;;;;8.80;5.50;;;31.20;84.80;;;;;;5092724;28;20356;-87
2022/01/31 00:18:48;;;;;;;7.40;5.60;;;30.40;89.00;;;;;;5092459;28;20368;-87
2022/01/31 00:21:15;;;;;;;8.15;6.00;;;30.10;90.80;;;;;;5092787;28;20381;-87
2022/01/31 00:23:42;;;;;;;8.18;5.53;;;29.80;91.30;;;;;;5092812;28;20388;-87
2022/01/31 00:26:09;;;;;;;7.30;5.45;;;29.60;92.40;;;;;;5092655;28;20395;-87
2022/01/31 00:28:36;;;;;;;6.50;5.32;;;29.90;91.10;;;;;;5092499;28;20740;-87
2022/01/31 00:31:03;;;;;;;8.75;5.85;;;30.20;91.40;;;;;;5092745;28;20412;-86
2022/01/31 00:33:30;;;;;;;9.50;5.80;;;30.70;89.50;;;;;;5092576;28;20474;-86
2022/01/31 00:35:57;;;;;;;8.85;5.78;;;30.90;89.50;;;;;;5093363;28;20377;-86
2022/01/31 00:38:23;;;;;;;11.52;6.28;;;31.00;89.00;;;;;;5107961;28;20720;-87
2022/01/31 00:40:50;;;;;;;7.78;5.90;;;30.80;88.10;;;;;;5104068;28;20900;-87
2022/01/31 00:43:20;;;;;;;8.75;5.55;;;30.50;88.70;;;;;;5093062;28;20563;-87
2022/01/31 00:45:58;;;;;;;6.80;5.40;;;30.10;90.10;;;;;;5091367;28;20384;-86
2022/01/31 00:48:27;;;;;;;6.80;5.90;;;29.90;90.80;;;;;;5092443;28;20409;-86
2022/01/31 00:50:54;;;;;;;7.90;5.50;;;30.20;90.70;;;;;;5092298;28;20376;-87
2022/01/31 00:53:21;;;;;;;7.80;6.05;;;30.30;89.80;;;;;;5092718;28;20411;-87
2022/01/31 00:55:48;;;;;;;10.70;6.57;;;30.40;90.70;;;;;;5092343;28;20412;-88
2022/01/31 00:58:15;;;;;;;7.53;6.28;;;30.20;90.20;;;;;;5092540;28;20461;-87
2022/01/31 01:00:42;;;;;;;8.30;5.88;;;30.00;90.80;;;;;;5092358;28;20372;-87
2022/01/31 01:03:12;;;;;;;9.10;6.47;;;29.90;90.40;;;;;;5091854;28;20922;-86
2022/01/31 01:05:39;;;;;;;9.95;6.00;;;29.90;91.90;;;;;;5092315;28;20385;-87
2022/01/31 01:08:06;;;;;;;9.38;6.20;;;30.40;91.90;;;;;;5092563;28;20360;-87
2022/01/31 01:10:33;;;;;;;9.52;6.32;;;30.70;90.00;;;;;;5092350;28;20375;-86
2022/01/31 01:13:00;;;;;;;8.40;6.13;;;30.40;90.30;;;;;;5092432;28;20406;-86
2022/01/31 01:15:27;;;;;;;7.15;5.90;;;30.40;91.10;;;;;;5092846;28;20774;-87
2022/01/31 01:17:55;;;;;;;9.55;6.40;;;30.70;90.70;;;;;;5095711;28;20364;-87
2022/01/31 01:20:23;;;;;;;6.68;5.70;;;30.90;90.20;;;;;;5090998;28;20384;-88
2022/01/31 01:22:50;;;;;;;7.18;5.78;;;30.60;88.80;;;;;;5093562;28;20372;-87
2022/01/31 01:25:17;;;;;;;9.97;6.10;;;30.30;89.30;;;;;;5096493;28;20418;-86
2022/01/31 01:27:47;;;;;;;9.02;6.07;;;30.00;90.80;;;;;;5096301;28;20391;-88
2022/01/31 01:30:15;;;;;;;8.40;6.10;;;30.00;90.50;;;;;;5095685;28;20467;-88
2022/01/31 01:35:34;;;;;;;7.25;5.68;;;31.10;91.00;;;;;;5101630;28;20376;-88
2022/01/31 01:38:06;;;;;;;7.38;5.50;;;32.00;86.00;;;;;;5103385;28;20409;-87
2022/01/31 01:40:35;;;;;;;7.28;5.10;;;32.70;82.60;;;;;;5103280;28;20377;-87
2022/01/31 01:43:03;;;;;;;6.20;5.18;;;32.90;79.90;;;;;;5102613;28;20383;-87
2022/01/31 01:45:30;;;;;;;7.97;5.28;;;33.20;76.40;;;;;;5098502;28;20387;-88
2022/01/31 01:47:57;;;;;;;6.32;5.07;;;32.80;77.30;;;;;;5096666;28;20375;-87
2022/01/31 01:50:24;;;;;;;6.93;5.95;;;32.70;77.40;;;;;;5094756;28;20434;-87
2022/01/31 01:52:53;;;;;;;8.57;6.13;;;32.60;76.60;;;;;;5096031;28;20454;-87
2022/01/31 01:55:20;;;;;;;8.23;5.85;;;32.20;77.60;;;;;;5094353;28;20464;-86
2022/01/31 01:57:47;;;;;;;8.35;5.95;;;32.30;79.20;;;;;;5095439;28;20411;-86
2022/01/31 02:00:25;;;;;;;8.82;5.82;;;32.30;77.00;;;;;;5095100;28;20462;-86
2022/01/31 02:02:54;;;;;;;7.63;6.07;;;31.80;76.80;;;;;;5095458;28;20423;-87
2022/01/31 02:05:22;;;;;;;8.25;6.00;;;31.30;80.50;;;;;;5095216;28;20395;-87
2022/01/31 02:07:49;;;;;;;7.93;5.80;;;31.70;79.20;;;;;;5095222;28;20371;-87
2022/01/31 02:10:17;;;;;;;7.60;5.72;;;32.00;78.80;;;;;;5094987;28;20444;-86
2022/01/31 02:12:46;;;;;;;7.15;5.85;;;32.70;77.10;;;;;;5095154;28;20399;-86
2022/01/31 02:15:15;;;;;;;6.03;4.95;;;33.10;74.30;;;;;;5095206;28;20418;-86
2022/01/31 02:17:43;;;;;;;7.50;4.70;;;33.60;72.60;;;;;;5095036;28;20376;-87
2022/01/31 02:20:11;;;;;;;7.53;5.25;;;33.20;70.50;;;;;;5094822;28;20450;-88
2022/01/31 02:22:38;;;;;;;7.57;5.45;;;33.70;70.10;;;;;;5095455;28;20451;-88
2022/01/31 02:25:07;;;;;;;6.28;5.55;;;34.10;68.90;;;;;;5095231;28;20407;-86
2022/01/31 02:27:37;;;;;;;6.60;5.75;;;34.50;67.80;;;;;;5094878;28;20851;-88
2022/01/31 02:30:08;;;;;;;7.20;5.90;;;34.50;67.70;;;;;;5094686;28;20731;-86
2022/01/31 02:32:35;;;;;;;7.25;6.45;;;35.10;66.70;;;;;;5095149;28;20400;-88
2022/01/31 02:35:04;;;;;;;6.85;6.00;;;35.70;63.70;;;;;;5093163;28;20432;-87
2022/01/31 02:37:32;;;;;;;6.30;5.70;;;36.20;63.10;;;;;;5094572;28;20384;-86
2022/01/31 02:39:59;;;;;;;6.90;5.78;;;36.60;61.80;;;;;;5094603;28;20693;-85
2022/01/31 02:42:26;;;;;;;9.02;5.85;;;36.80;59.20;;;;;;5094737;28;20383;-86
2022/01/31 02:44:53;;;;;;;7.32;5.68;;;36.70;58.40;;;;;;5094002;28;20403;-86
2022/01/31 02:47:26;;;;;;;7.10;5.78;;;36.20;59.50;;;;;;5093138;28;20373;-87
2022/01/31 02:49:58;;;;;;;7.67;5.23;;;36.30;60.40;;;;;;5093603;28;20377;-87
2022/01/31 02:52:28;;;;;;;6.78;5.35;;;36.70;57.30;;;;;;5095137;28;20396;-86
2022/01/31 02:54:55;;;;;;;7.47;5.20;;;37.50;55.70;;;;;;5095163;28;20389;-86
2022/01/31 02:57:22;;;;;;;6.85;5.32;;;37.00;56.30;;;;;;5094585;28;20376;-86
2022/01/31 02:59:50;;;;;;;7.30;5.30;;;37.20;56.20;;;;;;5094769;28;20426;-86
2022/01/31 03:02:17;;;;;;;5.65;4.80;;;37.30;55.30;;;;;;5093695;28;20385;-86
2022/01/31 03:04:44;;;;;;;6.18;5.18;;;37.50;54.20;;;;;;5093980;28;20396;-87
2022/01/31 03:07:11;;;;;;;6.90;5.05;;;37.20;55.10;;;;;;5093777;28;20859;-87
2022/01/31 03:09:38;;;;;;;6.53;5.28;;;37.30;54.80;;;;;;5094057;28;20376;-85
2022/01/31 03:12:05;;;;;;;7.50;5.15;;;38.00;52.60;;;;;;5093877;28;20365;-86
2022/01/31 03:14:32;;;;;;;5.70;4.97;;;38.30;52.80;;;;;;5093591;28;20844;-85
2022/01/31 03:17:04;;;;;;;9.05;5.20;;;38.30;51.90;;;;;;5093811;28;20754;-86
2022/01/31 03:19:31;;;;;;;6.97;5.47;;;38.50;52.20;;;;;;5093931;28;20373;-86
2022/01/31 03:21:58;;;;;;;8.05;5.70;;;39.30;51.80;;;;;;5093886;28;20903;-85
2022/01/31 03:24:25;;;;;;;8.10;5.10;;;39.70;51.00;;;;;;5093591;28;20450;-85
2022/01/31 03:26:52;;;;;;;6.20;5.38;;;39.80;50.90;;;;;;5093253;28;20383;-86
2022/01/31 03:29:18;;;;;;;7.10;5.40;;;39.00;51.60;;;;;;5093670;28;20408;-86
2022/01/31 03:31:45;;;;;;;7.07;5.45;;;37.70;53.20;;;;;;5093618;28;20371;-87
2022/01/31 03:34:12;;;;;;;8.88;5.82;;;37.70;54.00;;;;;;5093631;28;20462;-84
2022/01/31 03:36:39;;;;;;;7.70;5.80;;;38.10;52.70;;;;;;5093307;28;20372;-85
2022/01/31 03:39:06;;;;;;;10.25;5.80;;;37.40;53.20;;;;;;5093411;28;20400;-86
2022/01/31 03:41:33;;;;;;;6.57;5.75;;;36.80;54.50;;;;;;5093420;28;20368;-86
2022/01/31 03:44:00;;;;;;;8.18;5.85;;;37.60;55.80;;;;;;5093469;28;20479;-87
2022/01/31 03:46:28;;;;;;;5.50;5.00;;;39.00;53.90;;;;;;5092853;28;20736;-85
2022/01/31 03:48:55;;;;;;;5.60;4.88;;;40.40;50.10;;;;;;5093448;28;20361;-86
2022/01/31 03:51:22;;;;;;;7.53;5.10;;;41.00;48.30;;;;;;5093598;28;20376;-87
2022/01/31 03:53:49;;;;;;;6.57;4.75;;;41.50;47.90;;;;;;5093474;28;20364;-86
2022/01/31 03:56:16;;;;;;;5.83;4.73;;;42.00;46.60;;;;;;5093488;28;20448;-86
2022/01/31 03:58:42;;;;;;;6.93;4.60;;;42.80;45.90;;;;;;5093178;28;20368;-86
2022/01/31 04:01:09;;;;;;;5.32;4.72;;;43.20;44.20;;;;;;5093052;28;20368;-86
2022/01/31 04:03:36;;;;;;;6.43;4.70;;;41.20;45.90;;;;;;5092814;28;20403;-87
2022/01/31 04:06:07;;;;;;;6.25;4.70;;;40.80;46.30;;;;;;5092537;28;20395;-85
2022/01/31 04:08:34;;;;;;;6.20;4.70;;;41.00;46.30;;;;;;5093297;28;20383;-86
2022/01/31 04:11:01;;;;;;;5.75;4.93;;;40.70;46.90;;;;;;5094102;28;20411;-86
2022/01/31 04:13:28;;;;;;;6.20;4.97;;;41.10;47.00;;;;;;5093428;28;20872;-85
2022/01/31 04:15:55;;;;;;;5.30;4.80;;;41.20;47.00;;;;;;5092976;28;20380;-87
2022/01/31 04:18:22;;;;;;;7.70;4.15;;;40.80;46.00;;;;;;5093155;28;20470;-86
2022/01/31 04:20:49;;;;;;;8.52;3.75;;;39.40;49.50;;;;;;5093130;28;20411;-87
2022/01/31 04:23:18;;;;;;;6.10;3.30;;;38.90;51.50;;;;;;5093417;28;20479;-87
2022/01/31 04:28:23;;;;;;;6.40;3.30;;;39.60;52.10;;;;;;5093022;28;20408;-86
2022/01/31 04:33:23;;;;;;;7.38;3.30;;;40.20;51.30;;;;;;5093593;28;20392;-86
2022/01/31 04:35:50;;;;;;;4.45;2.80;;;40.50;50.60;;;;;;5094221;28;20395;-87
2022/01/31 04:38:17;;;;;;;4.85;3.30;;;40.90;51.10;;;;;;5092565;28;20373;-87
2022/01/31 04:40:45;;;;;;;5.53;3.25;;;40.70;50.70;;;;;;5092393;28;20372;-88
2022/01/31 04:43:12;;;;;;;5.45;3.60;;;41.10;50.40;;;;;;5092362;28;20379;-88
2022/01/31 04:45:46;;;;;;;5.07;3.53;;;41.10;49.40;;;;;;5091087;28;20752;-84
2022/01/31 04:48:14;;;;;;;5.73;3.83;;;40.80;50.50;;;;;;5092398;28;20858;-84
2022/01/31 04:50:42;;;;;;;5.43;3.75;;;41.00;49.20;;;;;;5092886;28;20373;-84
2022/01/31 04:53:10;;;;;;;5.15;3.30;;;41.00;51.30;;;;;;5094764;28;20412;-88
2022/01/31 04:55:38;;;;;;;5.07;3.10;;;41.40;49.90;;;;;;5100793;28;20364;-89
2022/01/31 04:58:06;;;;;;;4.45;3.00;;;41.50;48.90;;;;;;5096529;28;20383;-85
2022/01/31 05:00:33;;;;;;;5.60;3.20;;;41.40;49.60;;;;;;5095986;28;20372;-85
2022/01/31 05:03:04;;;;;;;5.60;3.20;;;41.10;50.00;;;;;;5095662;28;20400;-87
2022/01/31 05:05:31;;;;;;;5.00;3.00;;;40.80;50.30;;;;;;5096236;28;20408;-85
2022/01/31 05:07:58;;;;;;;4.77;3.10;;;40.90;50.10;;;;;;5095908;28;20360;-89
2022/01/31 05:10:25;;;;;;;5.15;3.20;;;40.70;50.00;;;;;;5096949;28;20546;-84
2022/01/31 05:12:52;;;;;;;3.97;3.00;;;40.70;51.30;;;;;;5095704;28;20438;-85
2022/01/31 05:15:19;;;;;;;5.47;3.20;;;40.30;50.40;;;;;;5095672;28;20466;-86
2022/01/31 05:17:46;;;;;;;5.65;3.40;;;40.00;52.20;;;;;;5095570;28;20388;-86
2022/01/31 05:20:13;;;;;;;5.15;3.30;;;39.60;52.40;;;;;;5095449;28;20365;-86
2022/01/31 05:22:40;;;;;;;5.65;3.10;;;39.80;52.20;;;;;;5096302;28;20379;-85
2022/01/31 05:25:07;;;;;;;7.05;3.00;;;39.70;52.30;;;;;;5096490;28;20744;-86
2022/01/31 05:27:34;;;;;;;4.53;2.88;;;39.80;52.60;;;;;;5096637;28;20407;-85
2022/01/31 05:30:01;;;;;;;5.07;2.95;;;40.20;51.60;;;;;;5096830;28;20448;-85
2022/01/31 05:32:28;;;;;;;5.60;2.75;;;40.30;51.30;;;;;;5096450;28;20369;-85
2022/01/31 05:34:55;;;;;;;5.22;3.00;;;40.70;50.50;;;;;;5095718;28;20368;-85
2022/01/31 05:37:22;;;;;;;4.82;2.70;;;40.80;50.70;;;;;;5095397;28;20500;-85
2022/01/31 05:39:49;;;;;;;4.38;2.65;;;40.80;50.70;;;;;;5095198;28;20376;-84
2022/01/31 05:42:16;;;;;;;3.35;2.60;;;40.70;50.50;;;;;;5095213;28;20368;-86
2022/01/31 05:44:46;;;;;;;3.75;2.63;;;40.40;50.40;;;;;;5095083;28;20396;-87
2022/01/31 05:47:15;;;;;;;6.15;2.80;;;40.20;51.90;;;;;;5095158;28;20725;-85
2022/01/31 05:49:42;;;;;;;4.30;2.70;;;39.90;51.70;;;;;;5095118;28;20388;-85
2022/01/31 05:52:10;;;;;;;3.78;2.80;;;39.50;52.40;;;;;;5095687;28;20460;-89
2022/01/31 05:54:39;;;;;;;4.22;2.80;;;39.90;51.30;;;;;;5095496;28;20756;-86
2022/01/31 05:57:07;;;;;;;4.55;2.72;;;39.20;52.40;;;;;;5095006;28;20467;-82
2022/01/31 05:59:35;;;;;;;4.53;3.13;;;38.30;53.70;;;;;;5095354;28;20384;-84
2022/01/31 06:02:04;;;;;;;5.28;3.00;;;37.20;56.20;;;;;;5092481;28;20868;-85
2022/01/31 06:04:31;;;;;;;4.50;3.10;;;36.20;57.50;;;;;;5094689;28;20497;-88
2022/01/31 06:06:59;;;;;;;5.25;3.13;;;35.50;59.50;;;;;;5094138;28;20381;-84
2022/01/31 06:09:27;;;;;;;6.47;3.03;;;35.00;60.30;;;;;;5094905;28;20772;-84
2022/01/31 06:11:55;;;;;;;7.32;3.15;;;34.40;61.90;;;;;;5094749;28;20426;-84
2022/01/31 06:14:22;;;;;;;4.20;2.85;;;34.10;63.40;;;;;;5094691;28;20378;-84
2022/01/31 06:16:49;;;;;;;6.72;3.40;;;34.10;63.40;;;;;;5094975;28;20948;-84
2022/01/31 06:19:16;;;;;;;4.15;2.85;;;34.20;63.80;;;;;;5094773;28;20368;-84
2022/01/31 06:21:43;;;;;;;5.70;3.17;;;34.70;62.80;;;;;;5094653;28;20376;-85
2022/01/31 06:24:11;;;;;;;3.65;2.80;;;35.70;62.00;;;;;;5093464;28;20480;-84
2022/01/31 06:26:38;;;;;;;5.47;2.57;;;36.90;59.80;;;;;;5094577;28;20380;-85
2022/01/31 06:29:06;;;;;;;3.50;2.65;;;37.60;57.50;;;;;;5096289;28;20716;-81
2022/01/31 06:31:33;;;;;;;4.68;2.70;;;38.40;55.90;;;;;;5094272;28;20385;-86
2022/01/31 06:34:01;;;;;;;4.00;2.70;;;38.60;54.50;;;;;;5094248;28;20421;-85
2022/01/31 06:36:29;;;;;;;3.80;2.70;;;38.50;54.50;;;;;;5094148;28;20462;-82
2022/01/31 06:38:56;;;;;;;4.88;2.85;;;38.40;55.10;;;;;;5094052;28;20395;-85
2022/01/31 06:41:24;;;;;;;3.23;2.60;;;38.40;54.90;;;;;;5094111;28;20383;-84
2022/01/31 06:43:52;;;;;;;4.97;2.88;;;38.50;54.30;;;;;;5093927;28;20416;-84
2022/01/31 06:46:19;;;;;;;3.83;2.50;;;38.50;54.30;;;;;;5094465;28;20428;-83
2022/01/31 06:48:47;;;;;;;5.27;2.63;;;38.50;54.30;;;;;;5093819;28;20356;-80
2022/01/31 06:51:14;;;;;;;3.77;2.43;;;38.30;55.10;;;;;;5093812;28;20381;-82
2022/01/31 06:53:42;;;;;;;2.55;2.20;;;38.20;55.10;;;;;;5093786;28;20399;-85
2022/01/31 06:56:09;;;;;;;3.40;2.60;;;38.60;54.20;;;;;;5093776;28;20398;-83
2022/01/31 06:58:36;;;;;;;4.10;2.53;;;38.10;54.90;;;;;;5093919;28;20439;-82
2022/01/31 07:01:03;;;;;;;2.92;2.50;;;36.90;56.70;;;;;;5093678;28;20369;-82
2022/01/31 07:03:30;;;;;;;4.40;2.45;;;36.70;57.90;;;;;;5093331;28;20404;-83
2022/01/31 07:05:57;;;;;;;4.13;2.53;;;37.00;57.40;;;;;;5093847;28;20381;-83
2022/01/31 07:08:24;;;;;;;3.67;2.60;;;37.20;56.30;;;;;;5094226;28;20786;-83
2022/01/31 07:10:52;;;;;;;4.50;2.50;;;36.80;57.00;;;;;;5093538;28;20509;-83
2022/01/31 07:14:01;;;;;;;3.53;2.50;;;36.20;58.30;;;;;;5093490;28;20368;-83
2022/01/31 07:16:12;;;;;;;2.60;2.40;;;35.90;59.10;;;;;;5091006;28;20380;-83
2022/01/31 07:18:39;;;;;;;4.30;2.60;;;35.80;58.50;;;;;;5093011;28;20962;-83
2022/01/31 07:21:12;;;;;;;4.25;2.72;;;35.10;59.50;;;;;;5091983;28;20434;-83
2022/01/31 07:26:24;;;;;;;4.68;2.60;;;33.80;62.70;;;;;;5093277;28;20364;-83
2022/01/31 07:28:51;;;;;;;3.05;2.50;;;33.10;64.80;;;;;;5092897;28;20361;-84
2022/01/31 07:31:18;;;;;;;3.23;2.90;;;32.40;66.20;;;;;;5092859;28;20380;-86
2022/01/31 07:33:45;;;;;;;3.60;2.83;;;31.90;67.90;;;;;;5093310;28;20430;-84
2022/01/31 07:36:12;;;;;;;3.20;2.70;;;31.40;69.50;;;;;;5093300;28;20472;-85
2022/01/31 07:38:41;;;;;;;3.90;2.80;;;31.10;70.30;;;;;;5093605;28;20372;-84
2022/01/31 07:41:12;;;;;;;3.53;2.65;;;30.80;71.30;;;;;;5092940;28;20881;-86
2022/01/31 07:43:43;;;;;;;3.83;2.90;;;30.50;72.00;;;;;;5092999;28;20388;-87
2022/01/31 07:46:13;;;;;;;2.90;2.53;;;30.40;71.80;;;;;;5093318;28;20373;-82
2022/01/31 07:48:40;;;;;;;3.42;2.38;;;30.70;72.50;;;;;;5093652;28;20365;-85
2022/01/31 07:51:09;;;;;;;2.65;2.30;;;31.40;71.00;;;;;;5093815;28;20909;-85
2022/01/31 07:53:39;;;;;;;3.53;2.20;;;31.90;70.20;;;;;;5093323;28;20373;-86
2022/01/31 07:56:10;;;;;;;3.25;2.08;;;32.50;68.30;;;;;;5092890;28;20364;-87
2022/01/31 07:58:38;;;;;;;2.30;2.00;;;33.00;66.50;;;;;;5092711;28;20777;-86
2022/01/31 08:01:06;;;;;;;2.50;1.90;;;33.20;66.10;;;;;;5093016;28;20897;-85
2022/01/31 08:03:33;;;;;;;1.90;1.70;;;33.20;66.10;;;;;;5092718;28;20811;-84
2022/01/31 08:06:00;;;;;;;2.00;1.80;;;33.20;65.80;;;;;;5093175;28;20403;-87
2022/01/31 08:08:31;;;;;;;3.17;1.73;;;33.20;66.00;;;;;;5092514;28;20389;-86
2022/01/31 08:11:02;;;;;;;2.53;2.00;;;33.10;65.50;;;;;;5092487;28;20505;-86
2022/01/31 08:13:29;;;;;;;3.42;3.10;;;32.70;66.70;;;;;;5092399;28;20447;-87
2022/01/31 08:18:44;;;;;;;11.45;9.93;;;31.80;69.60;;;;;;5092963;28;20709;-85
2022/01/31 08:21:14;;;;;;;8.07;6.60;;;31.40;71.60;;;;;;5092413;28;20384;-83
2022/01/31 08:23:42;;;;;;;3.40;1.80;;;31.40;71.70;;;;;;5094073;28;20515;-85
2022/01/31 08:26:14;;;;;;;2.35;1.70;;;31.10;73.10;;;;;;5095563;28;20404;-87
2022/01/31 08:28:45;;;;;;;2.95;1.50;;;30.70;73.80;;;;;;5092646;28;20380;-84
2022/01/31 08:33:45;;;;;;;2.42;1.60;;;30.10;76.70;;;;;;5096466;28;20364;-83
2022/01/31 08:36:13;;;;;;;3.17;1.60;;;29.80;78.30;;;;;;5096490;28;20375;-86
2022/01/31 08:38:42;;;;;;;3.58;1.75;;;29.60;79.10;;;;;;5096671;28;20699;-88
2022/01/31 08:41:11;;;;;;;2.40;1.70;;;29.20;81.20;;;;;;5096754;28;20369;-85
2022/01/31 08:43:39;;;;;;;1.98;1.70;;;29.00;82.90;;;;;;5096976;28;20392;-88
2022/01/31 08:46:08;;;;;;;2.58;1.90;;;28.90;84.50;;;;;;5095111;28;20782;-85
2022/01/31 08:48:36;;;;;;;2.80;1.80;;;28.80;85.60;;;;;;5096081;28;20375;-83
2022/01/31 08:51:05;;;;;;;2.22;1.60;;;28.50;88.70;;;;;;5095070;28;20882;-87
2022/01/31 08:53:33;;;;;;;2.40;1.55;;;28.50;90.70;;;;;;5096139;28;20403;-79
2022/01/31 08:56:05;;;;;;;2.70;1.55;;;28.30;91.40;;;;;;5095906;28;20376;-79
2022/01/31 08:58:33;;;;;;;3.17;1.60;;;28.30;92.30;;;;;;5095965;28;20360;-80
2022/01/31 09:01:06;;;;;;;1.73;1.30;;;28.10;93.10;;;;;;5096704;28;20380;-77
2022/01/31 09:06:04;;;;;;;2.20;1.42;;;28.00;95.10;;;;;;5096075;28;20376;-78
2022/01/31 09:08:31;;;;;;;2.17;1.50;;;27.80;96.20;;;;;;5095787;28;20736;-80
2022/01/31 09:10:59;;;;;;;2.25;1.70;;;27.70;97.10;;;;;;5095887;28;20392;-81
2022/01/31 09:13:26;;;;;;;4.20;1.50;;;27.60;97.70;;;;;;5095638;28;20369;-78
2022/01/31 09:15:53;;;;;;;3.08;1.52;;;27.50;98.40;;;;;;5095533;28;20404;-79
2022/01/31 09:18:20;;;;;;;1.80;1.60;;;27.60;98.90;;;;;;5095543;28;20762;-78
2022/01/31 09:20:47;;;;;;;5.60;1.90;;;27.40;99.30;;;;;;5095300;28;20459;-81
2022/01/31 09:23:14;;;;;;;3.53;1.65;;;27.40;99.70;;;;;;5095544;28;20365;-83
2022/01/31 09:25:47;;;;;;;3.07;1.47;;;27.30;99.90;;;;;;5095296;28;20400;-79
2022/01/31 09:28:15;;;;;;;4.20;1.50;;;27.30;99.90;;;;;;5095369;28;20759;-78
2022/01/31 09:30:44;;;;;;;2.92;1.40;;;27.30;99.90;;;;;;5093924;28;20385;-83
2022/01/31 09:33:12;;;;;;;3.92;1.65;;;27.30;99.90;;;;;;5095112;28;20770;-80
2022/01/31 09:35:40;;;;;;;2.78;1.30;;;27.20;99.90;;;;;;5095237;28;20380;-78
2022/01/31 09:38:08;;;;;;;3.10;1.40;;;27.10;99.90;;;;;;5095147;28;20751;-79
2022/01/31 09:40:36;;;;;;;1.70;1.20;;;27.20;99.90;;;;;;5095101;28;20369;-81
2022/01/31 09:51:03;;;;;;;5.15;1.42;;;27.10;99.90;;;;;;5095076;28;20459;-80
2022/01/31 09:53:32;;;;;;;2.55;1.33;;;27.10;99.90;;;;;;5095319;28;20396;-86
2022/01/31 09:56:00;;;;;;;1.75;1.10;;;27.00;99.90;;;;;;5094914;28;20938;-85
2022/01/31 09:58:29;;;;;;;3.88;1.20;;;26.90;99.90;;;;;;5094448;28;20387;-81
2022/01/31 10:01:05;;;;;;;1.25;1.00;;;26.90;99.90;;;;;;5094533;28;20455;-81
2022/01/31 10:03:33;;;;;;;1.20;1.00;;;26.70;99.90;;;;;;5092959;28;20779;-82
2022/01/31 10:06:00;;;;;;;2.42;1.13;;;26.60;99.90;;;;;;5094399;28;20396;-82
2022/01/31 10:08:30;;;;;;;2.20;1.10;;;26.60;99.90;;;;;;5094592;28;20365;-80
2022/01/31 10:11:02;;;;;;;2.22;1.10;;;26.50;99.90;;;;;;5094514;28;20381;-82
2022/01/31 10:16:29;;;;;;;3.42;1.30;;;26.40;99.90;;;;;;5094706;28;20367;-80
2022/01/31 10:19:12;;;;;;;1.98;1.05;;;26.50;99.90;;;;;;5094315;28;20404;-78
2022/01/31 10:22:01;;;;;;;2.20;1.20;;;26.40;99.90;;;;;;5094209;28;20379;-81
2022/01/31 10:24:30;;;;;;;2.60;1.20;;;26.30;99.90;;;;;;5096122;28;20393;-81
2022/01/31 10:26:57;;;;;;;2.53;1.30;;;26.30;99.90;;;;;;5094124;28;20425;-80
2022/01/31 10:29:25;;;;;;;1.88;0.90;;;26.30;99.90;;;;;;5094348;28;20373;-82
2022/01/31 10:32:12;;;;;;;2.80;1.05;;;26.40;99.90;;;;;;5094912;28;20448;-80
2022/01/31 10:34:46;;;;;;;1.48;0.90;;;26.40;99.90;;;;;;5094879;28;20369;-83
2022/01/31 10:37:17;;;;;;;2.08;1.00;;;26.40;99.90;;;;;;5094577;28;20388;-82
2022/01/31 10:53:55;;;;;;;2.05;0.90;;;26.70;99.90;;;;;;5093558;28;20454;-83
2022/01/31 10:56:23;;;;;;;3.72;1.10;;;26.70;99.90;;;;;;5093298;28;20375;-81
2022/01/31 10:59:06;;;;;;;3.47;1.00;;;26.70;99.90;;;;;;5093548;28;20372;-79
2022/01/31 11:01:33;;;;;;;1.70;0.90;;;26.70;99.90;;;;;;5093856;28;20371;-82
2022/01/31 11:04:05;;;;;;;2.17;1.00;;;26.70;99.90;;;;;;5093506;28;20392;-83
2022/01/31 11:06:33;;;;;;;1.80;0.90;;;26.70;99.90;;;;;;5093712;28;20365;-80
2022/01/31 11:09:08;;;;;;;3.92;1.08;;;26.70;99.90;;;;;;5093963;28;20448;-81
2022/01/31 11:11:37;;;;;;;2.10;1.00;;;26.70;99.90;;;;;;5092585;28;20751;-86
2022/01/31 11:14:05;;;;;;;2.35;1.00;;;26.60;99.90;;;;;;5093396;28;20369;-81
2022/01/31 11:16:33;;;;;;;2.90;1.10;;;26.60;99.90;;;;;;5091941;28;20718;-84
2022/01/31 11:19:06;;;;;;;2.40;0.93;;;26.50;99.90;;;;;;5093762;28;20376;-84
2022/01/31 11:21:37;;;;;;;2.80;1.02;;;26.40;99.90;;;;;;5093206;28;20368;-80
2022/01/31 11:24:17;;;;;;;2.65;0.90;;;26.30;99.90;;;;;;5093920;28;20388;-81
2022/01/31 11:26:49;;;;;;;1.48;0.80;;;26.30;99.90;;;;;;5093160;28;20455;-80
2022/01/31 11:29:17;;;;;;;1.67;0.85;;;26.20;99.90;;;;;;5093265;28;20852;-80
2022/01/31 11:31:44;;;;;;;2.67;1.15;;;26.20;99.90;;;;;;5092781;28;20373;-81
2022/01/31 11:34:12;;;;;;;3.85;1.10;;;26.10;99.90;;;;;;5093105;28;20803;-85
2022/01/31 11:36:40;;;;;;;2.25;1.00;;;26.10;99.90;;;;;;5093605;28;20376;-79
2022/01/31 11:39:10;;;;;;;3.20;0.90;;;26.00;99.90;;;;;;5091601;28;20377;-80
2022/01/31 11:41:45;;;;;;;2.53;1.00;;;25.80;99.90;;;;;;5093330;28;20375;-81
2022/01/31 11:44:44;;;;;;;1.65;0.93;;;25.70;99.90;;;;;;5092856;28;20392;-81
2022/01/31 11:47:12;;;;;;;2.35;1.10;;;25.50;99.90;;;;;;5092918;28;20440;-81
2022/01/31 11:49:50;;;;;;;3.85;1.10;;;25.50;99.90;;;;;;5093179;28;20376;-79
2022/01/31 11:52:20;;;;;;;2.25;0.93;;;25.50;99.90;;;;;;5093941;28;20395;-79
2022/01/31 11:54:50;;;;;;;2.30;0.95;;;25.50;99.90;;;;;;5093047;28;20376;-81
2022/01/31 11:57:22;;;;;;;3.58;1.10;;;25.40;99.90;;;;;;5092630;28;20423;-79
2022/01/31 11:59:58;;;;;;;2.95;1.10;;;25.40;99.90;;;;;;5093201;28;20386;-83
2022/01/31 12:02:29;;;;;;;2.90;1.02;;;25.40;99.90;;;;;;5092217;28;20878;-81
2022/01/31 12:05:06;;;;;;;2.95;1.10;;;25.30;99.90;;;;;;5092731;28;20910;-82
2022/01/31 12:07:42;;;;;;;3.78;1.20;;;25.30;99.90;;;;;;5091895;28;20371;-79
2022/01/31 12:10:42;;;;;;;2.63;1.00;;;25.30;99.90;;;;;;5092473;28;20368;-80
2022/01/31 12:13:33;;;;;;;2.27;1.00;;;25.20;99.90;;;;;;5080350;28;20731;-81
2022/01/31 12:16:24;;;;;;;1.70;1.00;;;25.20;99.90;;;;;;5093794;28;20390;-81
2022/01/31 12:19:00;;;;;;;2.85;1.00;;;25.20;99.90;;;;;;5092178;28;20377;-81
2022/01/31 12:24:38;;;;;;;2.20;1.10;;;25.10;99.90;;;;;;5092314;28;20524;-84
2022/01/31 12:27:22;;;;;;;3.13;1.10;;;25.00;99.90;;;;;;5085178;28;20377;-81
2022/01/31 12:29:57;;;;;;;1.58;1.00;;;24.90;99.90;;;;;;5092276;28;20373;-80
2022/01/31 12:32:43;;;;;;;1.67;1.00;;;24.90;99.90;;;;;;5092334;28;20447;-80
2022/01/31 12:35:14;;;;;;;2.33;1.07;;;24.90;99.90;;;;;;5092679;28;20357;-80
2022/01/31 12:37:54;;;;;;;2.20;1.13;;;24.90;99.90;;;;;;5092628;28;20770;-80
2022/01/31 12:40:33;;;;;;;2.83;1.23;;;24.90;99.90;;;;;;5092298;28;20913;-83
2022/01/31 12:45:54;;;;;;;2.40;1.10;;;24.80;99.90;;;;;;5092448;28;20418;-82
2022/01/31 12:48:25;;;;;;;2.55;1.20;;;24.80;99.90;;;;;;5092866;28;20356;-80
2022/01/31 12:50:52;;;;;;;3.53;1.20;;;24.80;99.90;;;;;;5092704;28;20380;-81
2022/01/31 12:53:37;;;;;;;2.47;1.13;;;24.80;99.90;;;;;;5092817;28;20372;-80
2022/01/31 12:56:12;;;;;;;2.40;1.20;;;24.80;99.90;;;;;;5092560;28;20372;-82
2022/01/31 12:58:49;;;;;;;1.98;1.10;;;24.80;99.90;;;;;;5092137;28;20361;-83
2022/01/31 13:01:23;;;;;;;3.85;1.30;;;24.80;99.90;;;;;;5092096;28;20403;-81
2022/01/31 13:03:57;;;;;;;1.80;1.10;;;24.80;99.90;;;;;;5091923;28;20403;-80
2022/01/31 13:07:00;;;;;;;2.72;1.20;;;24.80;99.90;;;;;;5092707;28;20373;-85
2022/01/31 13:09:29;;;;;;;1.85;0.95;;;24.80;99.90;;;;;;5090475;28;20372;-84
2022/01/31 13:12:05;;;;;;;2.83;1.25;;;24.70;99.90;;;;;;5092063;28;20376;-82
2022/01/31 13:14:37;;;;;;;2.50;1.30;;;24.70;99.90;;;;;;5092040;28;20455;-83
2022/01/31 13:17:12;;;;;;;2.42;1.13;;;24.70;99.90;;;;;;5092070;28;20380;-83
2022/01/31 13:19:42;;;;;;;3.25;1.30;;;24.70;99.90;;;;;;5095717;28;20379;-84
2022/01/31 13:22:17;;;;;;;3.72;1.40;;;24.80;99.90;;;;;;5095527;28;20455;-82
2022/01/31 13:24:49;;;;;;;2.08;1.10;;;24.70;99.90;;;;;;5095592;28;20396;-82
2022/01/31 13:27:19;;;;;;;2.83;1.20;;;24.80;99.90;;;;;;5095715;28;20364;-83
2022/01/31 13:29:48;;;;;;;1.85;1.20;;;24.80;99.90;;;;;;5094320;28;20377;-82
2022/01/31 13:32:29;;;;;;;2.70;1.10;;;24.80;99.90;;;;;;5095488;28;20389;-82
2022/01/31 13:35:12;;;;;;;7.82;1.20;;;24.90;99.90;;;;;;5095491;28;20376;-83
2022/01/31 13:37:49;;;;;;;2.65;1.10;;;24.90;99.90;;;;;;5095428;28;20372;-84
2022/01/31 13:40:39;;;;;;;2.90;1.17;;;24.90;99.90;;;;;;5095807;28;20762;-83
2022/01/31 13:43:29;;;;;;;1.73;1.20;;;24.90;99.90;;;;;;5095689;28;20439;-83
2022/01/31 13:48:44;;;;;;;2.03;1.02;;;24.90;99.90;;;;;;5095260;28;20841;-82
2022/01/31 13:51:24;;;;;;;1.40;1.00;;;25.00;99.90;;;;;;5095482;28;20372;-82